Airfield :
LOGIN :

Register | Disclaimer

   EN    FR    IT 

 










Legend :    VFR   Marginal VFR   IFR   Intensive IFR   Very Intensive IFR
Visi :
Ceiling :
>= 8 km
>= 3000ft
5 to 8 km
1000 to 3000 ft
1500m to 5 km
500 to 1000 ft
800 to 1500m
200 to 500 ft
< 800m
< 200 ft
Symbols :   Thunderstorms  Fog  Heavy snow  Heavy precipitations  Wind > 20 kt
SIGMETs :     Misc.  Thunderstorms  Icing  Turbulence  Mountain Waves  Volcanic Ashes






- Airport Elevation : 250 ft


LERI - Alcantarilla

CURRENT METAR :
  • 231530Z 13012KT 110V170 CAVOK 26/04 Q1015 NOSIG

EXPIRED METARs :
  • 231500Z 12012KT 090V170 CAVOK 26/04 Q1015 NOSIG
  • 231430Z 13013KT CAVOK 26/05 Q1015 NOSIG
  • 231400Z 14013KT 110V170 CAVOK 26/04 Q1015 NOSIG
  • 231330Z 07009KT 030V110 CAVOK 27/08 Q1015 NOSIG
  • 231300Z 07012KT 040V110 CAVOK 27/09 Q1016 NOSIG
  • 231230Z 07011KT 020V100 CAVOK 26/09 Q1016 NOSIG
  • 231200Z 05010KT 020V080 CAVOK 26/10 Q1016 NOSIG
  • 231130Z 05009KT 360V080 CAVOK 26/09 Q1016 NOSIG
  • 231100Z VRB07KT CAVOK 26/10 Q1016 NOSIG

TAF TAF LERI
Valid from the 23 at 12:00 until the 24 at 12:00 UTC


231100Z 2312/2412 10010KT CAVOK TX27/2314Z TN12/2405Z
BECMG 2320/2322 03004KT
BECMG 2410/2412 09010KT



MET'MAP, your aeronautical weather chart ! - Copyright ORBIFLY December 2007 - Disclaimer

ORBIFLY MET'MAP TEAM :

Programming & Development : Alexandra Zaïnal
Original concept : Baudouin d'Aumeries
Technical & hardware support : Manuel Goepfert
Assistance : Marc-Olivier Méhu




SOURCES & CREDITS :

   NOAA